createdAt,value
2023-01-20T00:01:48.136Z,30.50
2023-01-20T00:04:19.189Z,36.75
2023-01-20T00:06:48.165Z,33.25
2023-01-20T00:09:19.055Z,34.80
2023-01-20T00:11:49.320Z,35.50
2023-01-20T00:14:17.867Z,38.40
2023-01-20T00:16:46.735Z,35.75
2023-01-20T00:19:15.640Z,29.80
2023-01-20T00:21:44.619Z,30.25
2023-01-20T00:24:13.206Z,34.80
2023-01-20T00:26:42.089Z,25.25
2023-01-20T00:29:12.363Z,34.25
2023-01-20T00:31:41.235Z,37.50
2023-01-20T00:34:11.379Z,28.00
2023-01-20T00:36:40.285Z,32.75
2023-01-20T00:39:08.939Z,36.25
2023-01-20T00:41:37.783Z,30.00
2023-01-20T00:44:06.721Z,33.75
2023-01-20T00:46:37.156Z,27.25
2023-01-20T00:49:05.753Z,31.00
2023-01-20T00:51:34.537Z,28.75
2023-01-20T00:54:03.066Z,27.00
2023-01-20T00:56:31.943Z,24.20
2023-01-20T00:59:00.593Z,32.00
2023-01-20T01:01:29.602Z,25.25
2023-01-20T01:03:59.494Z,28.00
2023-01-20T01:06:28.469Z,30.00
2023-01-20T01:08:57.160Z,32.20
2023-01-20T01:11:25.999Z,28.25
2023-01-20T01:13:56.806Z,22.60
2023-01-20T01:16:25.671Z,25.75
2023-01-20T01:18:55.837Z,25.25
2023-01-20T01:21:26.538Z,25.00
2023-01-20T01:23:55.363Z,29.60
2023-01-20T01:26:24.193Z,28.00
2023-01-20T01:28:53.584Z,23.25
2023-01-20T01:31:23.045Z,31.60
2023-01-20T01:33:51.852Z,28.00
2023-01-20T01:36:20.903Z,22.75
2023-01-20T01:38:57.174Z,27.00
2023-01-20T01:41:28.158Z,30.25
2023-01-20T01:44:06.643Z,23.25
2023-01-20T01:46:35.928Z,26.50
2023-01-20T01:49:08.490Z,34.00
2023-01-20T01:51:40.562Z,24.50
2023-01-20T01:54:14.449Z,22.00
2023-01-20T01:56:45.890Z,26.75
2023-01-20T01:59:16.341Z,23.50
2023-01-20T02:01:50.678Z,26.00
2023-01-20T02:04:22.175Z,23.80
2023-01-20T02:06:53.699Z,27.75
2023-01-20T02:09:24.769Z,23.25
2023-01-20T02:11:58.333Z,29.40
2023-01-20T02:14:31.193Z,26.00
2023-01-20T02:17:06.107Z,21.80
2023-01-20T02:20:12.392Z,25.25
2023-01-20T02:22:52.485Z,19.00
2023-01-20T02:26:11.649Z,26.40
2023-01-20T02:29:21.295Z,20.25
2023-01-20T02:32:26.625Z,23.00
2023-01-20T02:35:01.918Z,31.25
2023-01-20T02:37:35.614Z,20.50
2023-01-20T02:40:15.654Z,24.75
2023-01-20T02:42:48.461Z,21.25
2023-01-20T02:45:23.890Z,18.00
2023-01-20T02:48:02.035Z,20.75
2023-01-20T02:50:39.585Z,16.20
2023-01-20T02:53:10.585Z,21.60
2023-01-20T02:55:43.567Z,20.75
2023-01-20T02:58:17.653Z,14.40
2023-01-20T03:01:07.162Z,17.80
2023-01-20T03:03:41.172Z,14.00
2023-01-20T03:06:15.894Z,11.40
2023-01-20T03:08:46.777Z,14.80
2023-01-20T03:11:16.752Z,14.60
2023-01-20T03:13:51.628Z,16.20
2023-01-20T03:16:23.670Z,16.00
2023-01-20T03:18:55.326Z,13.40
2023-01-20T03:21:24.624Z,16.00
2023-01-20T03:23:55.689Z,16.20
2023-01-20T03:26:24.953Z,14.60
2023-01-20T03:28:54.711Z,18.40
2023-01-20T03:31:26.826Z,19.60
2023-01-20T03:34:00.289Z,16.20
2023-01-20T03:36:31.640Z,17.20
2023-01-20T03:39:00.819Z,16.00
2023-01-20T03:41:40.931Z,20.00
2023-01-20T03:44:13.626Z,17.75
2023-01-20T03:46:48.540Z,17.25
2023-01-20T03:49:26.545Z,19.25
2023-01-20T03:52:03.079Z,22.00
2023-01-20T03:54:38.194Z,24.25
2023-01-20T03:57:12.134Z,22.25
2023-01-20T03:59:44.955Z,27.75
2023-01-20T04:02:14.009Z,25.00
2023-01-20T04:04:47.629Z,22.50
2023-01-20T04:07:21.065Z,19.50
2023-01-20T04:09:53.985Z,18.80
2023-01-20T04:12:22.933Z,16.50
2023-01-20T04:14:51.472Z,21.00
2023-01-20T04:17:20.350Z,25.50
2023-01-20T04:19:50.461Z,15.00
2023-01-20T04:22:26.180Z,23.25
2023-01-20T04:24:59.168Z,21.25
2023-01-20T04:27:28.614Z,14.00
2023-01-20T04:29:57.133Z,12.20
2023-01-20T04:32:25.961Z,15.00
2023-01-20T04:34:55.913Z,13.40
2023-01-20T04:37:26.206Z,19.75
2023-01-20T04:39:54.844Z,16.75
2023-01-20T04:42:23.865Z,20.00
2023-01-20T04:44:52.438Z,17.50
2023-01-20T04:47:21.347Z,15.50
2023-01-20T04:49:49.847Z,16.50
2023-01-20T04:52:20.010Z,15.50
2023-01-20T04:54:48.586Z,12.40
2023-01-20T04:57:17.493Z,18.25
2023-01-20T04:59:46.023Z,15.75
2023-01-20T05:02:14.950Z,15.00
2023-01-20T05:04:43.574Z,18.25
2023-01-20T05:07:12.506Z,18.00
2023-01-20T05:09:42.471Z,17.00
2023-01-20T05:12:11.368Z,20.25
2023-01-20T05:14:39.957Z,23.50
2023-01-20T05:17:11.493Z,20.25
2023-01-20T05:19:40.936Z,20.50
2023-01-20T05:22:10.029Z,27.25
2023-01-20T05:24:38.628Z,22.75
2023-01-20T05:27:08.889Z,25.50
2023-01-20T05:29:37.631Z,23.25
2023-01-20T05:32:06.722Z,29.25
2023-01-20T05:34:35.299Z,22.00
2023-01-20T05:37:04.144Z,25.25
2023-01-20T05:39:32.709Z,21.25
2023-01-20T05:42:02.533Z,25.00
2023-01-20T05:44:32.385Z,25.25
2023-01-20T05:47:01.393Z,23.50
2023-01-20T05:49:29.874Z,26.00
2023-01-20T05:51:58.747Z,23.75
2023-01-20T05:54:27.315Z,18.25
2023-01-20T05:56:56.146Z,27.25
2023-01-20T05:59:25.030Z,16.50
2023-01-20T06:01:58.769Z,18.50
2023-01-20T06:04:27.493Z,14.50
2023-01-20T06:06:56.321Z,21.25
2023-01-20T06:09:25.088Z,20.00
2023-01-20T06:11:53.879Z,18.00
2023-01-20T06:14:22.447Z,20.25
2023-01-20T06:16:51.477Z,15.50
2023-01-20T06:19:21.342Z,20.00
2023-01-20T06:21:50.225Z,18.75
2023-01-20T06:24:18.826Z,25.50
2023-01-20T06:26:48.068Z,20.00
2023-01-20T06:29:16.638Z,23.50
2023-01-20T06:31:45.665Z,25.00
2023-01-20T06:34:14.715Z,26.75
2023-01-20T06:36:44.997Z,27.25
2023-01-20T06:39:13.599Z,22.25
2023-01-20T06:41:42.447Z,24.75
2023-01-20T06:44:11.068Z,27.75
2023-01-20T06:46:39.944Z,26.00
2023-01-20T06:49:08.593Z,27.75
2023-01-20T06:51:37.588Z,28.00
2023-01-20T06:54:07.533Z,36.50
2023-01-20T06:56:36.580Z,29.50
2023-01-20T06:59:05.124Z,29.00
2023-01-20T07:01:35.169Z,30.50
2023-01-20T07:04:03.927Z,32.25
2023-01-20T07:06:35.768Z,34.00
2023-01-20T07:09:04.407Z,22.25
2023-01-20T07:11:35.204Z,21.75
2023-01-20T07:14:04.508Z,23.00
2023-01-20T07:16:34.127Z,25.25
2023-01-20T07:19:02.798Z,27.75
2023-01-20T07:21:31.984Z,25.50
2023-01-20T07:24:02.474Z,25.00
2023-01-20T07:26:36.267Z,16.75
2023-01-20T07:29:06.946Z,24.25
2023-01-20T07:31:36.163Z,23.00
2023-01-20T07:34:05.289Z,22.00
2023-01-20T07:36:34.304Z,23.00
2023-01-20T07:39:03.422Z,9.00
2023-01-20T07:41:32.702Z,23.25
2023-01-20T07:44:01.613Z,22.25
2023-01-20T07:46:32.150Z,21.25
2023-01-20T07:49:01.159Z,23.25
2023-01-20T07:51:30.468Z,18.75
2023-01-20T07:54:00.329Z,21.25
2023-01-20T07:56:30.890Z,22.50
2023-01-20T07:59:00.650Z,17.75
2023-01-20T08:01:33.441Z,18.00
2023-01-20T08:04:02.951Z,22.25
2023-01-20T08:06:32.439Z,14.25
2023-01-20T08:09:02.414Z,13.00
2023-01-20T08:11:33.516Z,18.00
2023-01-20T08:14:02.429Z,14.40
2023-01-20T08:16:33.486Z,17.25
2023-01-20T08:19:02.249Z,17.75
2023-01-20T08:21:33.716Z,13.50
2023-01-20T08:24:05.665Z,10.00
2023-01-20T08:26:35.718Z,16.00
2023-01-20T08:29:07.577Z,19.50
2023-01-20T08:31:39.730Z,11.50
2023-01-20T08:34:09.872Z,13.80
2023-01-20T08:36:41.781Z,12.20
2023-01-20T08:39:14.376Z,14.20
2023-01-20T08:41:45.069Z,18.40
2023-01-20T08:44:14.044Z,10.20
2023-01-20T08:46:46.615Z,10.00
2023-01-20T08:49:17.172Z,15.60
2023-01-20T08:51:46.402Z,10.20
2023-01-20T08:54:19.570Z,12.60
2023-01-20T08:56:51.299Z,16.00
2023-01-20T08:59:20.958Z,11.20
2023-01-20T09:01:51.543Z,15.20
2023-01-20T09:04:20.602Z,11.00
2023-01-20T09:06:52.888Z,12.25
2023-01-20T09:09:23.375Z,13.50
2023-01-20T09:11:52.585Z,20.75
2023-01-20T09:14:23.791Z,16.75
2023-01-20T09:16:54.254Z,12.60
2023-01-20T09:19:22.967Z,14.00
2023-01-20T09:21:52.528Z,12.80
2023-01-20T09:24:21.299Z,19.25
2023-01-20T09:26:51.012Z,14.00
2023-01-20T09:29:22.059Z,13.00
2023-01-20T09:31:58.161Z,18.50
2023-01-20T09:34:29.693Z,18.00
2023-01-20T09:37:21.534Z,14.50
2023-01-20T09:40:08.110Z,16.00
2023-01-20T09:43:11.133Z,18.00
2023-01-20T09:45:48.732Z,20.00
2023-01-20T09:48:46.610Z,12.80
2023-01-20T09:51:41.535Z,21.00
2023-01-20T09:54:17.914Z,18.75
2023-01-20T09:56:51.124Z,19.50
2023-01-20T09:59:26.717Z,18.00
2023-01-20T10:01:58.645Z,16.25
2023-01-20T10:04:36.478Z,17.25
2023-01-20T10:07:12.073Z,15.75
2023-01-20T10:09:46.796Z,18.50
2023-01-20T10:12:19.364Z,20.50
2023-01-20T10:14:54.496Z,15.00
2023-01-20T10:17:30.413Z,23.00
2023-01-20T10:20:06.656Z,18.00
2023-01-20T10:22:42.224Z,16.75
2023-01-20T10:25:16.250Z,13.40
2023-01-20T10:27:53.922Z,22.25
2023-01-20T10:30:26.614Z,23.50
2023-01-20T10:33:01.860Z,18.50
2023-01-20T10:35:38.642Z,26.00
2023-01-20T10:38:10.614Z,23.25
2023-01-20T10:40:44.653Z,21.00
2023-01-20T10:43:16.519Z,25.75
2023-01-20T10:46:12.894Z,28.25
2023-01-20T10:48:58.744Z,35.25
2023-01-20T10:51:37.806Z,31.00
2023-01-20T10:54:22.870Z,35.25
2023-01-20T10:56:56.524Z,38.00
2023-01-20T10:59:32.187Z,37.25
2023-01-20T11:02:12.777Z,37.00
2023-01-20T11:04:42.845Z,38.25
2023-01-20T11:07:18.834Z,46.00
2023-01-20T11:09:49.921Z,36.25
2023-01-20T11:12:21.425Z,44.25
2023-01-20T11:14:50.128Z,46.75
2023-01-20T11:17:21.791Z,47.25
2023-01-20T11:19:53.483Z,38.50
2023-01-20T11:22:32.490Z,43.00
2023-01-20T11:25:04.182Z,50.25
2023-01-20T11:27:42.734Z,44.25
2023-01-20T11:30:28.627Z,50.25
2023-01-20T11:33:19.554Z,47.50
2023-01-20T11:36:02.432Z,48.75
2023-01-20T11:38:42.260Z,62.00
2023-01-20T11:41:21.422Z,37.00
2023-01-20T11:43:52.539Z,47.75
2023-01-20T11:46:27.754Z,42.75
2023-01-20T11:49:18.676Z,29.75
2023-01-20T11:51:50.684Z,48.75
2023-01-20T11:54:23.504Z,57.25
2023-01-20T11:56:56.434Z,38.00
2023-01-20T11:59:29.543Z,55.50
2023-01-20T12:02:02.102Z,38.00
2023-01-20T12:04:56.468Z,58.75
2023-01-20T12:07:29.291Z,59.00
2023-01-20T12:10:06.094Z,53.50
2023-01-20T12:12:41.574Z,58.25
2023-01-20T12:15:16.956Z,63.75
2023-01-20T12:17:53.968Z,50.00
2023-01-20T12:20:30.033Z,54.75
2023-01-20T12:23:12.431Z,62.75
2023-01-20T12:25:52.076Z,63.25
2023-01-20T12:28:25.195Z,58.75
2023-01-20T12:30:59.258Z,67.00
2023-01-20T12:33:31.734Z,49.75
2023-01-20T12:36:34.572Z,71.25
2023-01-20T12:39:28.457Z,67.25
2023-01-20T12:42:40.133Z,66.25
2023-01-20T12:45:22.039Z,52.75
2023-01-20T12:48:06.155Z,59.00
2023-01-20T12:50:45.859Z,60.25
2023-01-20T12:53:32.906Z,65.00
2023-01-20T12:56:09.215Z,54.25
2023-01-20T12:58:50.043Z,61.00
2023-01-20T13:01:44.067Z,61.00
2023-01-20T13:04:55.769Z,67.25
2023-01-20T13:07:48.634Z,69.25
2023-01-20T13:10:33.526Z,61.00
2023-01-20T13:13:12.164Z,49.75
2023-01-20T13:15:47.104Z,59.25
2023-01-20T13:18:35.656Z,57.75
2023-01-20T13:21:05.800Z,35.00
2023-01-20T13:23:38.160Z,52.50
2023-01-20T13:26:07.772Z,51.00
2023-01-20T13:28:36.633Z,63.75
2023-01-20T13:31:43.522Z,50.75
2023-01-20T13:34:35.348Z,58.00
2023-01-20T13:37:31.216Z,53.25
2023-01-20T13:40:01.237Z,56.00
2023-01-20T13:42:50.431Z,57.00
2023-01-20T13:45:27.747Z,65.75
2023-01-20T13:48:04.032Z,51.75
2023-01-20T13:50:34.967Z,51.25
2023-01-20T13:53:15.585Z,60.50
2023-01-20T13:55:58.586Z,52.75
2023-01-20T13:58:29.417Z,50.00
2023-01-20T14:01:00.135Z,55.25
2023-01-20T14:03:32.877Z,47.75
2023-01-20T14:06:02.658Z,51.50
2023-01-20T14:08:33.613Z,50.25
2023-01-20T14:11:10.205Z,51.50
2023-01-20T14:13:39.776Z,48.00
2023-01-20T14:16:20.291Z,53.75
2023-01-20T14:18:57.937Z,63.25
2023-01-20T14:21:29.356Z,66.25
2023-01-20T14:23:59.540Z,57.25
2023-01-20T14:26:30.168Z,54.00
2023-01-20T14:29:01.993Z,54.25
2023-01-20T14:31:42.678Z,54.75
2023-01-20T14:34:29.498Z,47.75
2023-01-20T14:37:28.655Z,37.75
2023-01-20T14:39:59.579Z,51.50
2023-01-20T14:42:31.618Z,56.25
2023-01-20T14:45:01.020Z,54.75
2023-01-20T14:47:33.678Z,49.25
2023-01-20T14:50:04.740Z,56.50
2023-01-20T14:52:33.783Z,51.75
2023-01-20T14:55:02.704Z,45.25
2023-01-20T14:57:32.882Z,53.00
2023-01-20T15:00:18.071Z,51.00
2023-01-20T15:03:05.201Z,51.75
2023-01-20T15:05:43.010Z,49.25
2023-01-20T15:08:25.301Z,55.50
2023-01-20T15:11:31.435Z,57.75
2023-01-20T15:14:13.928Z,45.75
2023-01-20T15:16:49.902Z,48.25
2023-01-20T15:19:30.396Z,57.75
2023-01-20T15:22:19.088Z,58.00
2023-01-20T15:24:50.036Z,48.75
2023-01-20T15:27:27.101Z,62.25
2023-01-20T15:30:14.355Z,37.25
2023-01-20T15:32:43.466Z,61.25
2023-01-20T15:35:15.939Z,57.75
2023-01-20T15:37:46.497Z,52.25
2023-01-20T15:40:20.030Z,54.00
2023-01-20T15:42:50.397Z,65.25
2023-01-20T15:45:20.247Z,51.75
2023-01-20T15:47:49.858Z,51.75
2023-01-20T15:50:21.215Z,66.00
2023-01-20T15:52:51.782Z,54.50
2023-01-20T15:55:20.696Z,61.50
2023-01-20T15:57:53.051Z,48.75
2023-01-20T16:00:24.400Z,55.00
2023-01-20T16:02:53.588Z,59.75
2023-01-20T16:05:22.441Z,52.00
2023-01-20T16:07:52.824Z,60.75
2023-01-20T16:10:21.429Z,70.50
2023-01-20T16:12:50.740Z,63.50
2023-01-20T16:15:19.724Z,61.75
2023-01-20T16:17:51.245Z,58.00
2023-01-20T16:20:22.929Z,61.50
2023-01-20T16:22:53.689Z,58.75
2023-01-20T16:25:22.667Z,76.75
2023-01-20T16:27:51.932Z,74.25
2023-01-20T16:30:24.804Z,71.75
2023-01-20T16:32:54.383Z,67.75
2023-01-20T16:35:23.707Z,63.00
2023-01-20T16:37:55.025Z,52.75
2023-01-20T16:40:24.704Z,65.75
2023-01-20T16:42:56.098Z,65.25
2023-01-20T16:45:28.381Z,66.25
2023-01-20T16:47:58.128Z,66.75
2023-01-20T16:50:28.504Z,69.25
2023-01-20T16:52:59.868Z,65.00
2023-01-20T16:55:28.926Z,65.00
2023-01-20T16:57:57.976Z,62.50
2023-01-20T17:00:26.836Z,62.75
2023-01-20T17:02:55.818Z,62.25
2023-01-20T17:05:25.958Z,67.25
2023-01-20T17:07:56.920Z,68.00
2023-01-20T17:10:30.637Z,66.50
2023-01-20T17:13:00.319Z,59.50
2023-01-20T17:15:29.411Z,65.25
2023-01-20T17:18:00.403Z,68.00
2023-01-20T17:20:31.028Z,66.00
2023-01-20T17:23:00.132Z,60.00
2023-01-20T17:25:30.094Z,43.00
2023-01-20T17:27:59.119Z,60.50
2023-01-20T17:30:27.791Z,61.50
2023-01-20T17:32:57.282Z,52.75
2023-01-20T17:35:26.645Z,56.50
2023-01-20T17:37:56.031Z,66.00
2023-01-20T17:40:24.959Z,60.75
2023-01-20T17:42:55.666Z,59.50
2023-01-20T17:45:24.771Z,54.50
2023-01-20T17:47:53.847Z,66.75
2023-01-20T17:50:22.495Z,66.50
2023-01-20T17:52:52.121Z,59.25
2023-01-20T17:55:20.791Z,71.25
2023-01-20T17:57:51.908Z,54.00
2023-01-20T18:00:22.677Z,68.00
2023-01-20T18:02:51.916Z,65.50
2023-01-20T18:05:20.736Z,77.33
2023-01-20T18:07:50.331Z,43.75
2023-01-20T18:10:19.145Z,61.00
2023-01-20T18:12:48.118Z,64.25
2023-01-20T18:15:16.967Z,65.75
2023-01-20T18:17:48.351Z,60.50
2023-01-20T18:20:19.265Z,68.50
2023-01-20T18:22:49.851Z,72.75
2023-01-20T18:25:19.015Z,69.75
2023-01-20T18:27:47.927Z,71.00
2023-01-20T18:30:17.453Z,63.25
2023-01-20T18:32:48.058Z,57.00
2023-01-20T18:35:17.083Z,54.50
2023-01-20T18:37:45.985Z,64.75
2023-01-20T18:40:15.152Z,54.75
2023-01-20T18:42:45.189Z,71.75
2023-01-20T18:45:13.821Z,62.75
2023-01-20T18:47:42.998Z,60.50
2023-01-20T18:50:13.235Z,63.75
2023-01-20T18:52:43.853Z,68.00
2023-01-20T18:55:12.594Z,61.25
2023-01-20T18:57:42.389Z,61.00
2023-01-20T19:00:14.636Z,76.00
2023-01-20T19:02:44.040Z,57.00
2023-01-20T19:05:14.305Z,52.75
2023-01-20T19:07:43.386Z,56.25
2023-01-20T19:10:12.691Z,53.25
2023-01-20T19:12:42.646Z,60.50
2023-01-20T19:15:12.249Z,55.00
2023-01-20T19:17:41.195Z,43.75
2023-01-20T19:20:11.341Z,66.00
2023-01-20T19:22:41.980Z,51.25
2023-01-20T19:25:12.810Z,70.25
2023-01-20T19:27:41.695Z,43.50
2023-01-20T19:30:11.575Z,54.25
2023-01-20T19:32:42.132Z,60.25
2023-01-20T19:35:11.306Z,57.00
2023-01-20T19:37:43.772Z,57.50
2023-01-20T19:40:13.413Z,62.75
2023-01-20T19:42:42.710Z,52.50
2023-01-20T19:45:13.197Z,55.25
2023-01-20T19:47:43.023Z,53.75
2023-01-20T19:50:12.354Z,53.75
2023-01-20T19:52:43.135Z,61.25
2023-01-20T19:55:11.679Z,52.50
2023-01-20T19:57:40.895Z,60.75
2023-01-20T20:00:10.876Z,51.00
2023-01-20T20:02:43.257Z,46.25
2023-01-20T20:05:12.499Z,48.25
2023-01-20T20:07:42.864Z,45.00
2023-01-20T20:10:11.836Z,48.25
2023-01-20T20:12:40.721Z,47.25
2023-01-20T20:15:09.880Z,49.25
2023-01-20T20:17:39.301Z,46.00
2023-01-20T20:20:09.210Z,53.50
2023-01-20T20:22:38.143Z,47.50
2023-01-20T20:25:11.596Z,45.25
2023-01-20T20:27:40.537Z,61.25
2023-01-20T20:30:10.597Z,42.50
2023-01-20T20:32:39.567Z,48.75
2023-01-20T20:35:08.639Z,50.50
2023-01-20T20:37:37.568Z,52.25
2023-01-20T20:40:09.129Z,45.00
2023-01-20T20:42:38.045Z,10.00
2023-01-20T20:45:08.123Z,48.75
2023-01-20T20:47:37.173Z,51.50
2023-01-20T20:50:08.047Z,51.00
2023-01-20T20:52:36.911Z,50.25
2023-01-20T20:55:06.678Z,19.50
2023-01-20T20:57:37.109Z,62.50
2023-01-20T21:00:08.510Z,46.00
2023-01-20T21:02:39.680Z,54.25
2023-01-20T21:05:09.363Z,49.75
2023-01-20T21:07:38.243Z,51.75
2023-01-20T21:10:07.828Z,51.00
2023-01-20T21:12:38.124Z,42.25
2023-01-20T21:15:08.609Z,46.25
2023-01-20T21:17:37.613Z,46.25
2023-01-20T21:20:07.510Z,48.00
2023-01-20T21:22:36.967Z,52.50
2023-01-20T21:25:06.384Z,45.75
2023-01-20T21:27:36.381Z,44.00
2023-01-20T21:30:07.541Z,36.75
2023-01-20T21:32:40.836Z,47.50
2023-01-20T21:35:10.945Z,45.50
2023-01-20T21:37:39.985Z,51.50
2023-01-20T21:40:09.391Z,54.25
2023-01-20T21:42:38.350Z,39.75
2023-01-20T21:45:09.069Z,47.25
2023-01-20T21:47:38.177Z,58.50
2023-01-20T21:50:25.054Z,50.50
2023-01-20T21:52:54.151Z,47.00
2023-01-20T21:55:24.239Z,33.50
2023-01-20T21:57:53.100Z,54.00
2023-01-20T22:00:23.578Z,48.75
2023-01-20T22:02:52.604Z,50.75
2023-01-20T22:05:21.378Z,50.50
2023-01-20T22:07:50.485Z,51.75
2023-01-20T22:10:19.315Z,56.75
2023-01-20T22:12:48.571Z,49.50
2023-01-20T22:15:17.669Z,56.00
2023-01-20T22:17:48.084Z,54.00
2023-01-20T22:20:18.075Z,41.75
2023-01-20T22:22:47.277Z,42.25
2023-01-20T22:25:16.117Z,37.75
2023-01-20T22:27:45.100Z,37.25
2023-01-20T22:30:14.730Z,41.25
2023-01-20T22:32:43.855Z,56.50
2023-01-20T22:35:14.194Z,45.50
2023-01-20T22:37:43.120Z,44.00
2023-01-20T22:40:12.752Z,36.75
2023-01-20T22:42:41.582Z,49.50
2023-01-20T22:45:11.593Z,41.00
2023-01-20T22:47:40.551Z,48.50
2023-01-20T22:50:10.864Z,52.00
2023-01-20T22:52:41.101Z,38.25
2023-01-20T22:55:10.052Z,49.25
2023-01-20T22:57:38.931Z,41.50
2023-01-20T23:00:09.141Z,28.75
2023-01-20T23:02:38.963Z,55.25
2023-01-20T23:05:07.933Z,42.00
2023-01-20T23:07:38.491Z,44.50
2023-01-20T23:10:10.040Z,45.50
2023-01-20T23:12:38.970Z,43.00
2023-01-20T23:15:08.947Z,47.25
2023-01-20T23:17:38.131Z,50.75
2023-01-20T23:20:07.785Z,46.00
2023-01-20T23:22:36.651Z,44.50
2023-01-20T23:25:08.704Z,43.75
2023-01-20T23:27:39.969Z,37.00
2023-01-20T23:30:11.194Z,43.50
2023-01-20T23:32:40.325Z,51.25
2023-01-20T23:35:09.581Z,40.75
2023-01-20T23:37:38.424Z,43.25
2023-01-20T23:40:07.854Z,42.25
2023-01-20T23:42:38.118Z,53.75
2023-01-20T23:45:07.675Z,42.25
2023-01-20T23:47:36.540Z,42.50
2023-01-20T23:50:05.704Z,47.50
2023-01-20T23:52:34.648Z,46.75
2023-01-20T23:55:03.225Z,47.00
2023-01-20T23:57:32.136Z,38.75
